Time;durP1;ratioP1;P1;durP2;ratioP2;P2;SDS_P1;SDS_P2;PMS_P1;PMS_P2;Temp;Humidity;BMP_temperature;BMP_pressure;BME280_temperature;BME280_humidity;BME280_pressure;Samples;Min_cycle;Max_cycle;Signal;HPM_P1;HPM_P2
2022/01/03 00:00:59;;;;;;;4.17;1.20;;;13.20;99.90;;;;;;5031328;28;20198;-64
2022/01/03 00:03:26;;;;;;;3.83;1.60;;;13.30;99.90;;;;;;5031433;28;20726;-64
2022/01/03 00:05:52;;;;;;;5.13;2.43;;;13.30;99.90;;;;;;5031535;28;20214;-64
2022/01/03 00:08:19;;;;;;;6.17;2.50;;;13.40;99.90;;;;;;5034561;28;20260;-64
2022/01/03 00:10:46;;;;;;;4.53;1.77;;;13.40;99.90;;;;;;5034809;28;20229;-64
2022/01/03 00:13:13;;;;;;;2.57;1.60;;;13.30;99.90;;;;;;5034650;28;20231;-65
2022/01/03 00:15:41;;;;;;;4.17;1.60;;;13.40;99.90;;;;;;5034728;28;20209;-64
2022/01/03 00:18:08;;;;;;;3.80;1.13;;;13.40;99.90;;;;;;5034614;28;20268;-65
2022/01/03 00:20:34;;;;;;;3.40;1.40;;;13.40;99.90;;;;;;5034474;28;20202;-64
2022/01/03 00:23:04;;;;;;;3.83;1.40;;;13.40;99.90;;;;;;5034728;28;20234;-66
2022/01/03 00:25:35;;;;;;;4.00;1.50;;;13.50;99.90;;;;;;5034491;28;20693;-63
2022/01/03 00:28:10;;;;;;;3.57;1.30;;;13.50;99.90;;;;;;5034743;28;20214;-64
2022/01/03 00:30:38;;;;;;;2.83;1.20;;;13.40;99.90;;;;;;5034269;28;20226;-65
2022/01/03 00:33:06;;;;;;;4.07;1.30;;;13.40;99.90;;;;;;5034282;28;20317;-64
2022/01/03 00:35:37;;;;;;;5.97;1.90;;;13.40;99.90;;;;;;5034512;28;20213;-65
2022/01/03 00:38:05;;;;;;;5.33;1.60;;;13.40;99.90;;;;;;5034262;28;20214;-65
2022/01/03 00:40:32;;;;;;;6.53;2.07;;;13.40;99.90;;;;;;5034078;28;20213;-64
2022/01/03 00:43:00;;;;;;;2.03;0.97;;;13.50;99.90;;;;;;5034007;28;20245;-65
2022/01/03 00:45:26;;;;;;;3.17;1.20;;;13.40;99.90;;;;;;5034030;28;20674;-65
2022/01/03 00:47:55;;;;;;;3.07;1.40;;;13.30;99.90;;;;;;5034205;28;20631;-65
2022/01/03 00:50:24;;;;;;;7.33;1.50;;;13.40;99.90;;;;;;5033918;28;20230;-65
2022/01/03 00:52:51;;;;;;;5.63;1.20;;;13.40;99.90;;;;;;5033974;28;20649;-65
2022/01/03 00:55:19;;;;;;;5.00;1.40;;;13.40;99.90;;;;;;5034076;28;20202;-65
2022/01/03 00:57:57;;;;;;;4.73;1.40;;;13.40;99.90;;;;;;5034200;28;20217;-64
2022/01/03 01:00:24;;;;;;;1.97;0.90;;;13.50;99.90;;;;;;5033917;28;20209;-65
2022/01/03 01:02:57;;;;;;;2.80;1.33;;;13.60;99.90;;;;;;5033825;28;20280;-65
2022/01/03 01:05:25;;;;;;;3.93;1.20;;;13.60;99.90;;;;;;5033776;28;20690;-65
2022/01/03 01:07:56;;;;;;;2.73;1.17;;;13.60;99.90;;;;;;5033783;28;20244;-65
2022/01/03 01:10:26;;;;;;;4.23;1.60;;;13.60;99.90;;;;;;5033353;28;20264;-65
2022/01/03 01:12:54;;;;;;;2.23;1.13;;;13.60;99.90;;;;;;5033741;28;20233;-65
2022/01/03 01:15:20;;;;;;;4.53;1.60;;;13.60;99.90;;;;;;5033747;28;20210;-65
2022/01/03 01:17:48;;;;;;;5.00;1.50;;;13.60;99.90;;;;;;5033672;28;20202;-65
2022/01/03 01:20:19;;;;;;;7.40;2.47;;;13.60;99.90;;;;;;5032755;28;20206;-65
2022/01/03 01:22:48;;;;;;;5.30;1.07;;;13.60;99.90;;;;;;5033433;28;20317;-65
2022/01/03 01:27:46;;;;;;;3.77;1.07;;;13.60;99.90;;;;;;5033651;28;20214;-65
2022/01/03 01:28:14;;;;;;;3.13;1.30;;;13.50;99.90;;;;;;5033770;28;20210;-63
2022/01/03 01:30:42;;;;;;;7.13;1.70;;;13.50;99.90;;;;;;5033446;28;20261;-63
2022/01/03 01:33:11;;;;;;;5.47;1.33;;;13.60;99.90;;;;;;5033418;28;20634;-63
2022/01/03 01:35:42;;;;;;;5.00;1.40;;;13.60;99.90;;;;;;5033142;28;20205;-64
2022/01/03 01:38:14;;;;;;;6.17;1.77;;;13.60;99.90;;;;;;5033480;28;20202;-63
2022/01/03 01:40:45;;;;;;;4.30;1.20;;;13.60;99.90;;;;;;5032868;28;20198;-63
2022/01/03 01:43:14;;;;;;;5.13;1.20;;;13.60;99.90;;;;;;5078812;22;20328;-65
2022/01/03 01:45:42;;;;;;;5.63;1.40;;;13.60;99.90;;;;;;5073724;28;20209;-64
2022/01/03 01:48:12;;;;;;;4.13;1.20;;;13.60;99.90;;;;;;5073271;28;20692;-64
2022/01/03 01:50:40;;;;;;;4.17;1.50;;;13.60;99.90;;;;;;5072807;28;20224;-65
2022/01/03 01:53:08;;;;;;;2.70;1.07;;;13.60;99.90;;;;;;5073247;28;20224;-64
2022/01/03 01:55:40;;;;;;;4.33;1.10;;;13.60;99.90;;;;;;5073091;28;20646;-64
2022/01/03 01:58:19;;;;;;;3.77;1.40;;;13.60;99.90;;;;;;5072981;28;20703;-63
2022/01/03 02:00:50;;;;;;;7.63;1.40;;;13.60;99.90;;;;;;5073065;28;20209;-62
2022/01/03 02:03:25;;;;;;;3.57;1.13;;;13.60;99.90;;;;;;5073721;28;20232;-62
2022/01/03 02:06:02;;;;;;;4.37;1.50;;;13.60;99.90;;;;;;5074601;28;20672;-63
2022/01/03 02:08:33;;;;;;;2.80;1.20;;;13.60;99.90;;;;;;5072803;28;20572;-63
2022/01/03 02:11:06;;;;;;;2.73;1.37;;;13.60;99.90;;;;;;5072363;28;20307;-63
2022/01/03 02:13:34;;;;;;;5.07;1.53;;;13.60;99.90;;;;;;5072684;28;20232;-64
2022/01/03 02:16:03;;;;;;;5.10;1.43;;;13.60;99.90;;;;;;5072648;28;20212;-64
2022/01/03 02:18:31;;;;;;;4.30;1.30;;;13.60;99.90;;;;;;5072797;28;20234;-63
2022/01/03 02:21:02;;;;;;;4.40;1.30;;;13.70;99.90;;;;;;5072501;28;20210;-64
2022/01/03 02:23:29;;;;;;;3.60;1.20;;;13.70;99.90;;;;;;5072554;28;20236;-64
2022/01/03 02:25:56;;;;;;;2.67;1.33;;;13.80;99.90;;;;;;5072576;28;20220;-64
2022/01/03 02:28:23;;;;;;;1.77;1.10;;;13.80;99.90;;;;;;5072521;28;20209;-64
2022/01/03 02:30:50;;;;;;;3.20;1.43;;;13.80;99.90;;;;;;5071271;28;20229;-64
2022/01/03 02:33:18;;;;;;;5.03;1.40;;;13.80;99.90;;;;;;5072604;28;20286;-64
2022/01/03 02:35:47;;;;;;;4.33;1.43;;;13.70;99.90;;;;;;5072983;28;20258;-63
2022/01/03 02:38:16;;;;;;;4.50;1.50;;;13.70;99.90;;;;;;5072599;28;20205;-64
2022/01/03 02:40:43;;;;;;;4.87;1.37;;;13.60;99.90;;;;;;5072191;28;20208;-64
2022/01/03 02:43:09;;;;;;;3.13;1.03;;;13.60;99.90;;;;;;5072022;28;20232;-64
2022/01/03 02:45:36;;;;;;;4.23;1.47;;;13.60;99.90;;;;;;5072344;28;20254;-64
2022/01/03 02:48:07;;;;;;;2.87;1.20;;;13.60;99.90;;;;;;5072388;28;20274;-64
2022/01/03 02:50:35;;;;;;;3.73;1.63;;;13.60;99.90;;;;;;5071995;28;20201;-64
2022/01/03 02:53:02;;;;;;;3.47;1.50;;;13.60;99.90;;;;;;5072495;28;20275;-63
2022/01/03 02:55:31;;;;;;;4.13;1.40;;;13.60;99.90;;;;;;5072499;28;20258;-65
2022/01/03 02:58:06;;;;;;;3.87;1.47;;;13.60;99.90;;;;;;5072163;28;20201;-64
2022/01/03 03:00:33;;;;;;;3.60;1.23;;;13.70;99.90;;;;;;5071896;28;20205;-64
2022/01/03 03:03:02;;;;;;;5.33;1.50;;;13.70;99.90;;;;;;5072141;28;20711;-64
2022/01/03 03:05:28;;;;;;;3.83;1.30;;;13.80;99.90;;;;;;5072171;28;20248;-64
2022/01/03 03:07:55;;;;;;;4.47;1.47;;;13.70;99.90;;;;;;5072288;28;20210;-64
2022/01/03 03:10:25;;;;;;;5.60;1.47;;;13.70;99.90;;;;;;5072397;28;20254;-64
2022/01/03 03:12:53;;;;;;;3.73;1.67;;;13.80;99.90;;;;;;5072060;28;20229;-64
2022/01/03 03:15:20;;;;;;;4.10;1.30;;;13.80;99.90;;;;;;5071967;28;20680;-64
2022/01/03 03:17:48;;;;;;;4.83;1.23;;;13.80;99.90;;;;;;5071996;28;20209;-64
2022/01/03 03:20:17;;;;;;;4.83;1.60;;;13.80;99.90;;;;;;5072080;28;20208;-64
2022/01/03 03:22:49;;;;;;;5.20;1.40;;;13.80;99.90;;;;;;5072321;28;20220;-63
2022/01/03 03:25:18;;;;;;;4.00;1.60;;;13.90;99.90;;;;;;5071842;28;20303;-64
2022/01/03 03:27:47;;;;;;;6.03;1.37;;;13.80;99.90;;;;;;5071849;28;20668;-64
2022/01/03 03:30:17;;;;;;;2.93;1.30;;;13.80;99.90;;;;;;5071578;28;20208;-64
2022/01/03 03:32:45;;;;;;;2.50;1.20;;;13.80;99.90;;;;;;5071926;28;20250;-64
2022/01/03 03:35:12;;;;;;;4.13;1.30;;;13.80;99.90;;;;;;5071952;28;20227;-64
2022/01/03 03:37:39;;;;;;;3.27;1.20;;;13.80;99.90;;;;;;5071829;28;20272;-62
2022/01/03 03:40:08;;;;;;;3.30;1.30;;;13.80;99.90;;;;;;5071441;28;20254;-64
2022/01/03 03:42:36;;;;;;;5.60;1.40;;;13.90;99.90;;;;;;5073032;28;20232;-64
2022/01/03 03:45:04;;;;;;;5.13;1.53;;;13.90;99.90;;;;;;5075767;28;20213;-63
2022/01/03 03:47:32;;;;;;;4.50;1.37;;;13.90;99.90;;;;;;5075871;28;20208;-64
2022/01/03 03:49:58;;;;;;;4.10;1.40;;;13.90;99.90;;;;;;5075382;28;20209;-63
2022/01/03 03:52:25;;;;;;;4.60;1.70;;;13.90;99.90;;;;;;5075400;28;20275;-64
2022/01/03 03:54:52;;;;;;;4.77;1.50;;;13.80;99.90;;;;;;5075719;28;20216;-64
2022/01/03 03:57:18;;;;;;;3.23;1.40;;;13.80;99.90;;;;;;5075546;28;20632;-64
2022/01/03 03:59:45;;;;;;;4.77;1.60;;;13.90;99.90;;;;;;5075460;28;20209;-64
2022/01/03 04:02:12;;;;;;;3.93;1.60;;;13.90;99.90;;;;;;5075824;28;20228;-64
2022/01/03 04:04:40;;;;;;;3.70;1.00;;;14.00;99.90;;;;;;5075774;28;20266;-64
2022/01/03 04:07:06;;;;;;;6.57;1.70;;;13.90;99.90;;;;;;5075710;28;20205;-63
2022/01/03 04:09:33;;;;;;;4.67;1.30;;;13.90;99.90;;;;;;5075368;28;20232;-64
2022/01/03 04:12:00;;;;;;;4.23;1.20;;;13.80;99.90;;;;;;5075575;28;20707;-65
2022/01/03 04:14:27;;;;;;;4.50;1.43;;;13.70;99.90;;;;;;5076137;28;20201;-64
2022/01/03 04:16:53;;;;;;;5.60;1.47;;;13.80;99.90;;;;;;5075161;28;20205;-64
2022/01/03 04:19:20;;;;;;;5.60;1.60;;;13.70;99.90;;;;;;5074962;28;20205;-64
2022/01/03 04:21:48;;;;;;;3.13;1.10;;;13.70;99.90;;;;;;5074935;28;20733;-65
2022/01/03 04:24:15;;;;;;;6.10;1.77;;;13.80;99.90;;;;;;5074989;28;20209;-64
2022/01/03 04:26:43;;;;;;;4.87;1.23;;;13.80;99.90;;;;;;5074779;28;20209;-64
2022/01/03 04:29:10;;;;;;;9.13;1.90;;;13.90;99.90;;;;;;5074758;28;20258;-63
2022/01/03 04:31:36;;;;;;;6.53;1.47;;;13.90;99.90;;;;;;5074443;28;20221;-64
2022/01/03 04:34:03;;;;;;;4.87;1.30;;;14.00;99.90;;;;;;5074606;28;20232;-64
2022/01/03 04:36:30;;;;;;;4.73;1.70;;;14.00;99.90;;;;;;5074653;28;20212;-64
2022/01/03 04:38:58;;;;;;;3.97;1.30;;;13.90;99.90;;;;;;5074801;28;20208;-64
2022/01/03 04:41:25;;;;;;;5.50;2.00;;;13.90;99.90;;;;;;5074574;28;20212;-64
2022/01/03 04:43:51;;;;;;;4.37;1.10;;;13.80;99.90;;;;;;5074239;28;20236;-64
2022/01/03 04:46:18;;;;;;;4.23;1.60;;;13.80;99.90;;;;;;5075017;28;20205;-64
2022/01/03 04:48:45;;;;;;;4.80;1.40;;;13.70;99.90;;;;;;5075712;28;20205;-65
2022/01/03 04:51:13;;;;;;;5.00;1.37;;;13.60;99.90;;;;;;5074153;28;20715;-64
2022/01/03 04:53:40;;;;;;;6.77;1.40;;;13.60;99.90;;;;;;5073596;28;20224;-64
2022/01/03 04:56:10;;;;;;;4.53;1.70;;;13.50;99.90;;;;;;5074564;28;20295;-64
2022/01/03 04:58:37;;;;;;;5.00;1.17;;;13.50;99.90;;;;;;5074768;28;20211;-64
2022/01/03 05:01:05;;;;;;;5.47;1.60;;;13.50;99.90;;;;;;5074034;28;20248;-64
2022/01/03 05:03:31;;;;;;;3.10;1.03;;;13.30;99.90;;;;;;5074055;28;20631;-65
2022/01/03 05:06:00;;;;;;;5.93;1.43;;;13.10;99.90;;;;;;5073950;28;20626;-63
2022/01/03 05:08:26;;;;;;;7.73;1.33;;;13.00;99.90;;;;;;5074140;28;20200;-64
2022/01/03 05:10:53;;;;;;;3.60;0.97;;;13.00;99.90;;;;;;5073891;28;20254;-64
2022/01/03 05:13:21;;;;;;;12.40;1.50;;;12.90;99.90;;;;;;5073841;28;20229;-64
2022/01/03 05:15:48;;;;;;;3.13;1.20;;;12.90;99.90;;;;;;5074104;28;20567;-64
2022/01/03 05:18:15;;;;;;;3.13;1.10;;;12.70;99.90;;;;;;5073901;28;20205;-64
2022/01/03 05:20:41;;;;;;;4.60;1.10;;;12.60;99.90;;;;;;5073803;28;20349;-64
2022/01/03 05:23:08;;;;;;;3.13;1.10;;;12.50;99.90;;;;;;5073991;28;20229;-63
2022/01/03 05:25:35;;;;;;;6.37;1.03;;;12.50;99.90;;;;;;5073731;28;20234;-63
2022/01/03 05:28:01;;;;;;;2.97;0.90;;;12.50;99.90;;;;;;5074049;28;20262;-63
2022/01/03 05:30:29;;;;;;;6.50;1.40;;;12.40;99.90;;;;;;5073395;28;20212;-64
2022/01/03 05:32:56;;;;;;;4.80;1.17;;;12.50;99.90;;;;;;5073334;28;20646;-63
2022/01/03 05:35:23;;;;;;;3.67;1.13;;;12.50;99.90;;;;;;5073462;28;20205;-63
2022/01/03 05:37:49;;;;;;;4.10;1.47;;;12.50;99.90;;;;;;5073792;28;20212;-63
2022/01/03 05:40:16;;;;;;;4.50;1.37;;;12.50;99.90;;;;;;5073592;28;20209;-64
2022/01/03 05:42:46;;;;;;;3.43;1.30;;;12.50;99.90;;;;;;5073690;28;20236;-63
2022/01/03 05:45:13;;;;;;;6.33;1.40;;;12.40;99.90;;;;;;5073880;28;20239;-64
2022/01/03 05:47:43;;;;;;;3.80;1.60;;;12.40;99.90;;;;;;5073615;28;20286;-65
2022/01/03 05:50:10;;;;;;;4.17;1.07;;;12.40;99.90;;;;;;5073743;28;20212;-64
2022/01/03 05:52:37;;;;;;;5.67;1.13;;;12.40;99.90;;;;;;5073633;28;20232;-65
2022/01/03 05:55:05;;;;;;;4.70;1.80;;;12.40;99.90;;;;;;5073415;28;20212;-64
2022/01/03 05:57:32;;;;;;;5.37;1.03;;;12.30;99.90;;;;;;5073240;28;20583;-64
2022/01/03 05:59:59;;;;;;;3.30;1.00;;;12.30;99.90;;;;;;5072859;28;20209;-65
2022/01/03 06:02:28;;;;;;;4.60;1.53;;;12.20;99.90;;;;;;5073122;28;20225;-64
2022/01/03 06:04:59;;;;;;;7.60;1.73;;;12.30;99.90;;;;;;5073192;28;20209;-64
2022/01/03 06:07:26;;;;;;;5.60;1.43;;;12.20;99.90;;;;;;5073085;28;20201;-64
2022/01/03 06:09:53;;;;;;;3.87;1.40;;;12.30;99.90;;;;;;5072975;28;20216;-64
2022/01/03 06:12:20;;;;;;;4.07;1.10;;;12.30;99.90;;;;;;5072598;28;20259;-64
2022/01/03 06:14:47;;;;;;;6.47;1.40;;;12.30;99.90;;;;;;5072774;28;20695;-64
2022/01/03 06:17:16;;;;;;;6.03;1.87;;;12.30;99.90;;;;;;5072892;28;20246;-63
2022/01/03 06:19:43;;;;;;;7.90;2.07;;;12.40;99.90;;;;;;5072851;28;20201;-64
2022/01/03 06:22:12;;;;;;;6.33;1.60;;;12.40;99.90;;;;;;5073008;28;20224;-64
2022/01/03 06:24:40;;;;;;;6.87;1.70;;;12.30;99.90;;;;;;5073016;28;20616;-63
2022/01/03 06:27:07;;;;;;;4.10;1.70;;;12.30;99.90;;;;;;5072475;28;20207;-64
2022/01/03 06:29:33;;;;;;;5.77;1.77;;;12.30;99.90;;;;;;5072877;28;20209;-64
2022/01/03 06:32:00;;;;;;;7.13;1.57;;;12.30;99.90;;;;;;5072362;28;20201;-63
2022/01/03 06:34:27;;;;;;;6.00;2.10;;;12.20;99.90;;;;;;5072611;28;20205;-64
2022/01/03 06:36:54;;;;;;;7.70;2.03;;;12.20;99.90;;;;;;5072783;28;20710;-64
2022/01/03 06:39:22;;;;;;;4.77;1.70;;;12.20;99.90;;;;;;5072447;28;20201;-64
2022/01/03 06:41:48;;;;;;;4.13;1.30;;;12.20;99.90;;;;;;5072337;28;20267;-64
2022/01/03 06:44:15;;;;;;;5.93;1.67;;;12.20;99.90;;;;;;5072476;28;20684;-64
2022/01/03 06:46:42;;;;;;;10.60;2.60;;;12.20;99.90;;;;;;5072480;28;20580;-64
2022/01/03 06:49:09;;;;;;;4.93;1.63;;;12.20;99.90;;;;;;5072450;28;20204;-63
2022/01/03 06:51:36;;;;;;;3.73;1.07;;;12.10;99.90;;;;;;5072274;28;20212;-64
2022/01/03 06:54:05;;;;;;;5.50;1.57;;;12.20;99.90;;;;;;5071944;28;20233;-64
2022/01/03 06:56:34;;;;;;;5.80;1.80;;;12.10;99.90;;;;;;5072050;28;20291;-64
2022/01/03 06:59:01;;;;;;;4.23;1.50;;;12.20;99.90;;;;;;5072067;28;20216;-65
2022/01/03 07:01:28;;;;;;;4.93;1.60;;;12.20;99.90;;;;;;5072292;28;20583;-65
2022/01/03 07:03:55;;;;;;;6.23;1.50;;;12.20;99.90;;;;;;5072633;28;20220;-64
2022/01/03 07:06:21;;;;;;;3.60;1.30;;;12.20;99.90;;;;;;5072422;28;20211;-64
2022/01/03 07:08:48;;;;;;;4.90;1.50;;;12.20;99.90;;;;;;5073373;28;20216;-63
2022/01/03 07:11:15;;;;;;;6.97;1.47;;;12.30;99.90;;;;;;5073428;28;20205;-64
2022/01/03 07:13:48;;;;;;;4.63;1.40;;;12.40;99.90;;;;;;5074330;28;20236;-64
2022/01/03 07:19:00;;;;;;;10.33;3.63;;;12.40;99.90;;;;;;5076742;28;20683;-65
2022/01/03 07:21:28;;;;;;;5.37;1.50;;;12.40;99.90;;;;;;5076339;28;20668;-65
2022/01/03 07:23:56;;;;;;;9.37;2.23;;;12.50;99.90;;;;;;5076676;28;20320;-64
2022/01/03 07:26:23;;;;;;;3.80;1.20;;;12.50;99.90;;;;;;5076997;28;20213;-65
2022/01/03 07:28:51;;;;;;;4.23;1.80;;;12.60;99.90;;;;;;5076317;28;20208;-64
2022/01/03 07:31:18;;;;;;;4.87;1.67;;;12.60;99.90;;;;;;5077003;28;20212;-65
2022/01/03 07:33:44;;;;;;;6.70;2.27;;;12.60;99.90;;;;;;5076862;28;20225;-65
2022/01/03 07:36:11;;;;;;;6.37;2.10;;;12.60;99.90;;;;;;5076409;28;20258;-65
2022/01/03 07:38:39;;;;;;;9.40;2.30;;;12.70;99.90;;;;;;5075606;28;20256;-64
2022/01/03 07:41:06;;;;;;;8.50;2.07;;;12.60;99.90;;;;;;5075692;28;20581;-65
2022/01/03 07:43:33;;;;;;;6.27;3.53;;;12.60;99.90;;;;;;5098597;22;20229;-60
2022/01/03 07:46:01;;;;;;;6.50;2.13;;;12.50;99.90;;;;;;5075432;28;20672;-60
2022/01/03 07:48:28;;;;;;;7.03;2.77;;;12.60;99.90;;;;;;5075179;28;20208;-60
2022/01/03 07:50:54;;;;;;;5.50;1.70;;;12.60;99.90;;;;;;5074801;28;20213;-60
2022/01/03 07:53:21;;;;;;;5.40;2.03;;;12.60;99.90;;;;;;5075148;28;20244;-60
2022/01/03 07:55:48;;;;;;;7.97;2.47;;;12.60;99.90;;;;;;5075095;28;20205;-60
2022/01/03 07:58:16;;;;;;;6.47;2.20;;;12.60;99.90;;;;;;5074922;28;20209;-60
2022/01/03 08:00:44;;;;;;;4.17;1.77;;;12.50;99.90;;;;;;5074787;28;20209;-59
2022/01/03 08:03:12;;;;;;;8.40;2.37;;;12.50;99.90;;;;;;5074888;28;20216;-60
2022/01/03 08:05:39;;;;;;;97.53;71.53;;;12.40;99.90;;;;;;5074984;28;20232;-60
2022/01/03 08:08:08;;;;;;;23.40;14.43;;;12.40;99.90;;;;;;5074817;28;20209;-60
2022/01/03 08:10:37;;;;;;;11.90;4.20;;;12.40;99.90;;;;;;5074517;28;20209;-60
2022/01/03 08:13:03;;;;;;;6.80;1.90;;;12.40;99.90;;;;;;5074532;28;20320;-62
2022/01/03 08:15:30;;;;;;;7.23;2.37;;;12.50;99.90;;;;;;5074633;28;20241;-61
2022/01/03 08:17:57;;;;;;;17.47;9.07;;;12.40;99.90;;;;;;5071252;28;20205;-59
2022/01/03 08:20:26;;;;;;;6.53;2.10;;;12.50;99.90;;;;;;5074518;28;20258;-61
2022/01/03 08:22:53;;;;;;;8.03;2.30;;;12.40;99.90;;;;;;5074532;28;20313;-59
2022/01/03 08:25:20;;;;;;;8.27;2.13;;;12.40;99.90;;;;;;5074317;28;20270;-59
2022/01/03 08:27:46;;;;;;;5.40;2.00;;;12.30;99.90;;;;;;5073386;28;20696;-62
2022/01/03 08:30:13;;;;;;;5.27;1.83;;;12.40;99.90;;;;;;5068535;28;20703;-64
2022/01/03 08:32:40;;;;;;;9.40;2.20;;;12.40;99.90;;;;;;5074283;28;20224;-65
2022/01/03 08:35:07;;;;;;;7.57;1.73;;;12.50;99.90;;;;;;5074455;28;20295;-63
2022/01/03 08:37:35;;;;;;;8.07;2.70;;;12.50;99.90;;;;;;5074270;28;20234;-64
2022/01/03 08:40:04;;;;;;;7.00;2.00;;;12.40;99.90;;;;;;5074016;28;20212;-63
2022/01/03 08:42:31;;;;;;;8.27;2.37;;;12.00;99.90;;;;;;5074215;28;20341;-65
2022/01/03 08:44:58;;;;;;;7.07;2.00;;;12.00;99.90;;;;;;5074298;28;20209;-64
2022/01/03 08:47:25;;;;;;;9.60;2.00;;;12.00;99.90;;;;;;5074225;28;20688;-63
2022/01/03 08:49:52;;;;;;;5.80;2.07;;;12.00;99.90;;;;;;5073502;28;20266;-65
2022/01/03 08:52:18;;;;;;;9.30;2.80;;;12.10;99.90;;;;;;5073896;28;20215;-64
2022/01/03 08:54:46;;;;;;;32.67;23.67;;;12.20;99.90;;;;;;5073626;28;20220;-64
2022/01/03 08:57:13;;;;;;;10.13;4.10;;;12.30;99.90;;;;;;5073596;28;20208;-65
2022/01/03 08:59:40;;;;;;;9.63;2.43;;;12.40;99.90;;;;;;5074087;28;20224;-64
2022/01/03 09:02:08;;;;;;;8.77;2.23;;;12.50;99.90;;;;;;5073257;28;20664;-61
2022/01/03 09:04:34;;;;;;;5.97;2.13;;;12.60;99.90;;;;;;5073915;28;20224;-62
2022/01/03 09:07:01;;;;;;;7.27;2.33;;;12.50;99.90;;;;;;5074122;28;20734;-64
2022/01/03 09:09:30;;;;;;;5.80;2.23;;;12.50;99.90;;;;;;5073760;28;20212;-61
2022/01/03 09:11:58;;;;;;;4.87;2.23;;;12.50;99.90;;;;;;5073418;28;20560;-62
2022/01/03 09:14:25;;;;;;;9.93;4.83;;;12.50;99.90;;;;;;5073487;28;20240;-63
2022/01/03 09:16:51;;;;;;;8.20;3.87;;;12.60;99.90;;;;;;5073568;28;20235;-65
2022/01/03 09:19:18;;;;;;;7.60;2.80;;;12.80;99.90;;;;;;5074522;28;20213;-65
2022/01/03 09:21:45;;;;;;;10.07;2.83;;;12.90;99.90;;;;;;5073317;28;20208;-63
2022/01/03 09:29:41;;;;;;;5.97;2.00;;;13.20;99.90;;;;;;5071317;28;20212;-65
2022/01/03 09:32:08;;;;;;;5.57;2.00;;;13.30;99.90;;;;;;5072919;28;20216;-61
2022/01/03 09:34:35;;;;;;;8.20;2.73;;;13.40;99.90;;;;;;5073146;28;20738;-61
2022/01/03 09:37:02;;;;;;;8.00;2.83;;;13.50;99.90;;;;;;5073497;28;20212;-62
2022/01/03 09:39:29;;;;;;;5.43;2.13;;;13.60;99.90;;;;;;5073360;28;20557;-62
2022/01/03 09:41:59;;;;;;;3.37;1.87;;;13.60;99.90;;;;;;5072923;28;20664;-60
2022/01/03 09:44:30;;;;;;;4.23;1.77;;;13.60;99.90;;;;;;5073338;28;20233;-65
2022/01/03 09:47:01;;;;;;;4.73;1.83;;;13.70;99.90;;;;;;5073219;28;20227;-60
2022/01/03 09:49:33;;;;;;;8.43;2.03;;;13.70;99.90;;;;;;5073256;28;20647;-60
2022/01/03 09:52:00;;;;;;;7.97;2.10;;;13.80;99.90;;;;;;5073109;28;20239;-61
2022/01/03 09:54:28;;;;;;;5.10;2.00;;;13.80;99.90;;;;;;5073270;28;20232;-61
2022/01/03 09:56:57;;;;;;;6.70;2.40;;;14.00;99.90;;;;;;5072978;28;20215;-61
2022/01/03 09:59:24;;;;;;;4.07;1.93;;;14.00;99.90;;;;;;5073018;28;20255;-61
2022/01/03 10:01:52;;;;;;;8.50;2.17;;;14.00;99.90;;;;;;5072646;28;20204;-61
2022/01/03 10:04:21;;;;;;;6.13;1.60;;;14.10;99.90;;;;;;5073133;28;20294;-61
2022/01/03 10:06:48;;;;;;;9.90;2.20;;;14.10;99.90;;;;;;5072859;28;20220;-61
2022/01/03 10:09:15;;;;;;;5.30;1.80;;;14.00;99.90;;;;;;5073156;28;20212;-60
2022/01/03 10:11:42;;;;;;;5.80;1.60;;;14.00;99.90;;;;;;5072567;28;20251;-63
2022/01/03 10:14:09;;;;;;;5.83;1.80;;;14.00;99.90;;;;;;5072705;28;20221;-62
2022/01/03 10:16:35;;;;;;;6.97;2.80;;;14.10;99.90;;;;;;5072897;28;20226;-61
2022/01/03 10:19:02;;;;;;;5.43;1.90;;;14.20;99.90;;;;;;5072613;28;20673;-61
2022/01/03 10:21:38;;;;;;;4.40;1.80;;;14.20;99.90;;;;;;5072562;28;20201;-61
2022/01/03 10:24:05;;;;;;;7.07;2.30;;;14.20;99.90;;;;;;5072596;28;20220;-61
2022/01/03 10:26:32;;;;;;;5.70;1.90;;;14.20;99.90;;;;;;5072803;28;20212;-62
2022/01/03 10:29:12;;;;;;;10.50;3.30;;;14.30;99.90;;;;;;5072795;28;20212;-61
2022/01/03 10:31:40;;;;;;;6.43;1.80;;;14.30;99.90;;;;;;5072303;28;20205;-60
2022/01/03 10:34:09;;;;;;;8.13;1.70;;;14.40;99.90;;;;;;5072366;28;20641;-60
2022/01/03 10:36:38;;;;;;;6.67;2.13;;;14.50;99.90;;;;;;5072574;28;20209;-60
2022/01/03 10:39:13;;;;;;;5.00;2.30;;;14.50;99.90;;;;;;5072396;28;20204;-60
2022/01/03 10:41:40;;;;;;;4.80;1.83;;;14.60;99.90;;;;;;5072256;28;20212;-61
2022/01/03 10:44:07;;;;;;;7.90;2.30;;;14.60;99.90;;;;;;5072179;28;20224;-60
2022/01/03 10:46:36;;;;;;;11.90;4.93;;;14.70;99.90;;;;;;5072416;28;20742;-60
2022/01/03 10:49:07;;;;;;;8.07;2.30;;;14.70;99.90;;;;;;5072220;28;20216;-60
2022/01/03 10:51:34;;;;;;;9.07;2.20;;;14.70;99.90;;;;;;5071255;28;20209;-60
2022/01/03 10:54:03;;;;;;;5.77;2.20;;;14.70;99.90;;;;;;5071743;28;20235;-61
2022/01/03 10:56:33;;;;;;;7.77;2.30;;;14.80;99.90;;;;;;5072168;28;20204;-61
2022/01/03 10:59:01;;;;;;;4.67;1.80;;;14.80;99.90;;;;;;5071887;28;20209;-60
2022/01/03 11:01:31;;;;;;;5.73;2.00;;;14.90;99.90;;;;;;5071819;28;20205;-60
2022/01/03 11:04:00;;;;;;;6.78;2.42;;;14.80;99.90;;;;;;5070050;28;20456;-61
2022/01/03 11:06:46;;;;;;;10.80;2.37;;;14.80;99.90;;;;;;5070846;28;20201;-61
2022/01/03 11:12:18;;;;;;;5.87;2.20;;;14.80;99.90;;;;;;5071785;28;20675;-63
2022/01/03 11:14:45;;;;;;;6.43;2.10;;;14.80;99.90;;;;;;5071289;28;20220;-62
2022/01/03 11:17:27;;;;;;;7.20;2.80;;;14.80;99.90;;;;;;5071803;28;20216;-65
2022/01/03 11:19:55;;;;;;;7.03;1.93;;;14.80;99.90;;;;;;5071650;28;20747;-65
2022/01/03 11:22:43;;;;;;;8.33;2.70;;;14.90;99.90;;;;;;5071643;28;20459;-66
2022/01/03 11:25:12;;;;;;;6.47;2.20;;;14.90;99.90;;;;;;5071579;28;20201;-64
2022/01/03 11:27:40;;;;;;;6.67;3.23;;;15.00;99.90;;;;;;5071791;28;20212;-60
2022/01/03 11:30:10;;;;;;;6.57;3.03;;;15.00;99.90;;;;;;5060814;28;20208;-63
2022/01/03 11:32:39;;;;;;;8.17;2.10;;;15.10;99.90;;;;;;5072024;28;20204;-59
2022/01/03 11:35:06;;;;;;;6.60;2.23;;;15.20;99.90;;;;;;5071652;28;20229;-59
2022/01/03 11:37:36;;;;;;;6.13;1.70;;;15.20;99.90;;;;;;5071477;28;20203;-59
2022/01/03 11:40:05;;;;;;;7.53;1.77;;;15.30;99.90;;;;;;5071721;28;20215;-59
2022/01/03 11:42:33;;;;;;;5.53;2.00;;;15.40;99.90;;;;;;5071493;28;20688;-59
2022/01/03 11:45:01;;;;;;;8.13;2.13;;;15.40;99.90;;;;;;5071661;28;20197;-60
2022/01/03 11:47:28;;;;;;;7.23;1.53;;;15.40;99.90;;;;;;5071434;28;20205;-59
2022/01/03 11:49:55;;;;;;;5.50;1.63;;;15.40;99.90;;;;;;5071396;28;20778;-60
2022/01/03 11:52:23;;;;;;;6.10;1.90;;;15.40;99.90;;;;;;5071250;28;20304;-58
2022/01/03 11:54:52;;;;;;;5.10;2.00;;;15.40;99.90;;;;;;5071624;28;20225;-59
2022/01/03 11:57:27;;;;;;;3.83;1.80;;;15.30;99.90;;;;;;5071506;28;20208;-61
2022/01/03 12:05:40;;;;;;;4.83;2.00;;;15.30;99.90;;;;;;5069375;28;20204;-61
2022/01/03 12:08:07;;;;;;;4.37;1.80;;;15.30;99.90;;;;;;5069308;28;20200;-62
2022/01/03 12:10:45;;;;;;;11.70;5.73;;;15.30;99.90;;;;;;5069182;28;20212;-61
2022/01/03 12:13:12;;;;;;;6.47;1.80;;;15.40;99.90;;;;;;5069131;28;20225;-60
2022/01/03 12:15:41;;;;;;;6.13;1.30;;;15.50;99.90;;;;;;5072740;22;20234;-57
2022/01/03 12:18:30;;;;;;;7.47;1.70;;;15.50;99.90;;;;;;5029164;28;20286;-58
2022/01/03 12:20:57;;;;;;;5.93;1.60;;;15.50;99.90;;;;;;5028837;28;20264;-58
2022/01/03 12:23:40;;;;;;;6.63;3.63;;;15.50;99.90;;;;;;5028984;28;20210;-57
2022/01/03 12:26:08;;;;;;;5.37;2.73;;;15.50;99.90;;;;;;5029201;28;20234;-57
2022/01/03 12:29:06;;;;;;;4.40;1.70;;;15.40;99.90;;;;;;5029039;28;20573;-58
2022/01/03 12:32:14;;;;;;;4.20;1.50;;;15.40;99.90;;;;;;5028812;28;20238;-57
2022/01/03 12:34:43;;;;;;;3.97;1.50;;;15.40;99.90;;;;;;4993217;28;20214;-58
2022/01/03 12:37:21;;;;;;;4.10;1.37;;;15.40;99.90;;;;;;5028641;28;20230;-58
2022/01/03 12:40:10;;;;;;;3.47;1.17;;;15.40;99.90;;;;;;5028890;28;20205;-58
2022/01/03 12:42:54;;;;;;;3.37;1.30;;;15.30;99.90;;;;;;5028817;28;20233;-58
2022/01/03 12:45:54;;;;;;;4.03;1.03;;;15.10;99.90;;;;;;5028651;28;20258;-58
2022/01/03 12:48:23;;;;;;;3.20;1.33;;;15.00;99.90;;;;;;5028542;28;20214;-58
2022/01/03 12:51:15;;;;;;;8.40;4.93;;;15.10;99.90;;;;;;5029163;28;20213;-59
2022/01/03 12:53:53;;;;;;;5.27;1.83;;;15.10;99.90;;;;;;5028516;28;20212;-59
2022/01/03 12:56:27;;;;;;;5.60;1.07;;;15.00;99.90;;;;;;5028426;28;20230;-58
2022/01/03 12:58:57;;;;;;;3.70;1.10;;;15.00;99.90;;;;;;5028335;28;20209;-58
2022/01/03 13:01:28;;;;;;;4.33;1.17;;;15.00;99.90;;;;;;5028374;28;20254;-58
2022/01/03 13:03:56;;;;;;;2.23;1.10;;;15.00;99.90;;;;;;5028233;28;20630;-59
2022/01/03 13:06:28;;;;;;;4.50;1.40;;;15.00;99.90;;;;;;5027941;28;20257;-58
2022/01/03 13:09:08;;;;;;;4.67;1.43;;;15.00;99.90;;;;;;5028319;28;20202;-58
2022/01/03 13:11:36;;;;;;;6.37;1.97;;;15.00;99.90;;;;;;5027926;28;20674;-58